sensor_id;sensor_type;location;lat;lon;timestamp;P1;durP1;ratioP1;P2;durP2;ratioP2
31676;SDS011;18385;51.572;6.578;2023-11-19T00:00:25;5.68;;;2.92;;
31676;SDS011;18385;51.572;6.578;2023-11-19T00:02:51;5.72;;;2.92;;
31676;SDS011;18385;51.572;6.578;2023-11-19T00:05:17;6.75;;;2.78;;
31676;SDS011;18385;51.572;6.578;2023-11-19T00:07:42;7.43;;;2.90;;
31676;SDS011;18385;51.572;6.578;2023-11-19T00:10:12;6.47;;;3.05;;
31676;SDS011;18385;51.572;6.578;2023-11-19T00:12:42;5.90;;;2.90;;
31676;SDS011;18385;51.572;6.578;2023-11-19T00:15:09;6.78;;;2.55;;
31676;SDS011;18385;51.572;6.578;2023-11-19T00:17:39;5.90;;;2.47;;
31676;SDS011;18385;51.572;6.578;2023-11-19T00:20:07;4.50;;;2.80;;
31676;SDS011;18385;51.572;6.578;2023-11-19T00:22:33;7.18;;;2.75;;
31676;SDS011;18385;51.572;6.578;2023-11-19T00:24:59;6.38;;;3.10;;
31676;SDS011;18385;51.572;6.578;2023-11-19T00:27:25;6.97;;;2.80;;
31676;SDS011;18385;51.572;6.578;2023-11-19T00:29:51;5.90;;;2.55;;
31676;SDS011;18385;51.572;6.578;2023-11-19T00:32:16;8.18;;;3.10;;
31676;SDS011;18385;51.572;6.578;2023-11-19T00:34:45;6.00;;;3.00;;
31676;SDS011;18385;51.572;6.578;2023-11-19T00:37:13;7.13;;;3.20;;
31676;SDS011;18385;51.572;6.578;2023-11-19T00:39:40;8.18;;;3.33;;
31676;SDS011;18385;51.572;6.578;2023-11-19T00:42:06;7.88;;;3.33;;
31676;SDS011;18385;51.572;6.578;2023-11-19T00:44:32;4.20;;;2.40;;
31676;SDS011;18385;51.572;6.578;2023-11-19T00:46:57;6.22;;;3.28;;
31676;SDS011;18385;51.572;6.578;2023-11-19T00:49:25;5.15;;;2.90;;
31676;SDS011;18385;51.572;6.578;2023-11-19T00:51:50;5.57;;;2.80;;
31676;SDS011;18385;51.572;6.578;2023-11-19T00:54:16;5.90;;;2.95;;
31676;SDS011;18385;51.572;6.578;2023-11-19T00:56:41;9.43;;;3.08;;
31676;SDS011;18385;51.572;6.578;2023-11-19T00:59:07;6.07;;;2.60;;
31676;SDS011;18385;51.572;6.578;2023-11-19T01:01:33;5.93;;;2.70;;
31676;SDS011;18385;51.572;6.578;2023-11-19T01:03:59;7.78;;;2.65;;
31676;SDS011;18385;51.572;6.578;2023-11-19T01:06:31;6.25;;;2.90;;
31676;SDS011;18385;51.572;6.578;2023-11-19T01:08:57;3.63;;;2.10;;
31676;SDS011;18385;51.572;6.578;2023-11-19T01:11:26;3.38;;;1.83;;
31676;SDS011;18385;51.572;6.578;2023-11-19T01:13:52;4.38;;;1.98;;
31676;SDS011;18385;51.572;6.578;2023-11-19T01:16:17;5.07;;;2.30;;
31676;SDS011;18385;51.572;6.578;2023-11-19T01:18:44;5.05;;;2.35;;
31676;SDS011;18385;51.572;6.578;2023-11-19T01:21:11;3.05;;;1.90;;
31676;SDS011;18385;51.572;6.578;2023-11-19T01:23:37;3.80;;;2.00;;
31676;SDS011;18385;51.572;6.578;2023-11-19T01:26:03;6.05;;;2.55;;
31676;SDS011;18385;51.572;6.578;2023-11-19T01:28:30;3.20;;;1.83;;
31676;SDS011;18385;51.572;6.578;2023-11-19T01:30:56;5.47;;;2.05;;
31676;SDS011;18385;51.572;6.578;2023-11-19T01:33:22;3.60;;;1.83;;
31676;SDS011;18385;51.572;6.578;2023-11-19T01:35:47;4.55;;;2.05;;
31676;SDS011;18385;51.572;6.578;2023-11-19T01:38:13;6.95;;;2.30;;
31676;SDS011;18385;51.572;6.578;2023-11-19T01:40:39;3.53;;;1.80;;
31676;SDS011;18385;51.572;6.578;2023-11-19T01:43:05;3.75;;;1.75;;
31676;SDS011;18385;51.572;6.578;2023-11-19T01:45:31;5.68;;;1.67;;
31676;SDS011;18385;51.572;6.578;2023-11-19T01:47:59;5.90;;;2.17;;
31676;SDS011;18385;51.572;6.578;2023-11-19T01:50:29;3.90;;;1.88;;
31676;SDS011;18385;51.572;6.578;2023-11-19T01:52:57;7.25;;;1.90;;
31676;SDS011;18385;51.572;6.578;2023-11-19T01:55:23;5.72;;;1.55;;
31676;SDS011;18385;51.572;6.578;2023-11-19T01:57:50;5.85;;;1.90;;
31676;SDS011;18385;51.572;6.578;2023-11-19T02:00:17;4.32;;;1.50;;
31676;SDS011;18385;51.572;6.578;2023-11-19T02:02:44;4.97;;;1.80;;
31676;SDS011;18385;51.572;6.578;2023-11-19T02:05:13;2.90;;;1.67;;
31676;SDS011;18385;51.572;6.578;2023-11-19T02:07:39;3.70;;;1.60;;
31676;SDS011;18385;51.572;6.578;2023-11-19T02:10:05;3.88;;;1.70;;
31676;SDS011;18385;51.572;6.578;2023-11-19T02:12:37;5.70;;;1.92;;
31676;SDS011;18385;51.572;6.578;2023-11-19T02:15:08;4.40;;;1.75;;
31676;SDS011;18385;51.572;6.578;2023-11-19T02:17:34;3.30;;;1.88;;
31676;SDS011;18385;51.572;6.578;2023-11-19T02:20:02;4.43;;;1.65;;
31676;SDS011;18385;51.572;6.578;2023-11-19T02:22:31;4.18;;;1.38;;
31676;SDS011;18385;51.572;6.578;2023-11-19T02:24:59;9.27;;;1.80;;
31676;SDS011;18385;51.572;6.578;2023-11-19T02:30:09;5.38;;;1.88;;
31676;SDS011;18385;51.572;6.578;2023-11-19T02:32:36;5.55;;;1.27;;
31676;SDS011;18385;51.572;6.578;2023-11-19T02:35:06;4.80;;;1.50;;
31676;SDS011;18385;51.572;6.578;2023-11-19T02:37:33;4.38;;;1.60;;
31676;SDS011;18385;51.572;6.578;2023-11-19T02:39:59;5.05;;;1.27;;
31676;SDS011;18385;51.572;6.578;2023-11-19T02:42:29;7.53;;;1.27;;
31676;SDS011;18385;51.572;6.578;2023-11-19T02:44:55;7.95;;;1.70;;
31676;SDS011;18385;51.572;6.578;2023-11-19T02:47:20;8.02;;;1.40;;
31676;SDS011;18385;51.572;6.578;2023-11-19T02:49:49;10.25;;;1.95;;
31676;SDS011;18385;51.572;6.578;2023-11-19T02:52:15;8.55;;;1.67;;
31676;SDS011;18385;51.572;6.578;2023-11-19T02:54:42;7.50;;;1.40;;
31676;SDS011;18385;51.572;6.578;2023-11-19T02:57:08;4.65;;;1.20;;
31676;SDS011;18385;51.572;6.578;2023-11-19T02:59:38;7.18;;;1.33;;
31676;SDS011;18385;51.572;6.578;2023-11-19T03:02:08;7.65;;;2.10;;
31676;SDS011;18385;51.572;6.578;2023-11-19T03:04:37;9.98;;;1.60;;
31676;SDS011;18385;51.572;6.578;2023-11-19T03:07:07;7.32;;;1.50;;
31676;SDS011;18385;51.572;6.578;2023-11-19T03:09:33;9.27;;;1.60;;
31676;SDS011;18385;51.572;6.578;2023-11-19T03:12:00;9.57;;;2.08;;
31676;SDS011;18385;51.572;6.578;2023-11-19T03:14:27;8.60;;;1.50;;
31676;SDS011;18385;51.572;6.578;2023-11-19T03:16:52;9.70;;;1.48;;
31676;SDS011;18385;51.572;6.578;2023-11-19T03:19:19;6.70;;;1.35;;
31676;SDS011;18385;51.572;6.578;2023-11-19T03:21:44;8.57;;;2.38;;
31676;SDS011;18385;51.572;6.578;2023-11-19T03:24:12;7.18;;;1.27;;
31676;SDS011;18385;51.572;6.578;2023-11-19T03:26:38;4.70;;;1.15;;
31676;SDS011;18385;51.572;6.578;2023-11-19T03:29:04;9.63;;;1.83;;
31676;SDS011;18385;51.572;6.578;2023-11-19T03:31:30;7.57;;;1.55;;
31676;SDS011;18385;51.572;6.578;2023-11-19T03:33:56;6.20;;;1.35;;
31676;SDS011;18385;51.572;6.578;2023-11-19T03:36:21;11.18;;;2.05;;
31676;SDS011;18385;51.572;6.578;2023-11-19T03:38:48;8.90;;;1.35;;
31676;SDS011;18385;51.572;6.578;2023-11-19T03:41:15;6.97;;;1.40;;
31676;SDS011;18385;51.572;6.578;2023-11-19T03:43:42;11.85;;;2.50;;
31676;SDS011;18385;51.572;6.578;2023-11-19T03:46:17;10.32;;;2.08;;
31676;SDS011;18385;51.572;6.578;2023-11-19T03:48:44;6.68;;;1.70;;
31676;SDS011;18385;51.572;6.578;2023-11-19T03:51:11;14.70;;;2.88;;
31676;SDS011;18385;51.572;6.578;2023-11-19T03:53:41;10.15;;;1.58;;
31676;SDS011;18385;51.572;6.578;2023-11-19T03:56:08;12.82;;;1.75;;
31676;SDS011;18385;51.572;6.578;2023-11-19T03:58:35;17.35;;;1.85;;
31676;SDS011;18385;51.572;6.578;2023-11-19T04:01:01;11.93;;;1.42;;
31676;SDS011;18385;51.572;6.578;2023-11-19T04:03:27;14.07;;;2.13;;
31676;SDS011;18385;51.572;6.578;2023-11-19T04:05:53;9.75;;;2.05;;
31676;SDS011;18385;51.572;6.578;2023-11-19T04:08:19;9.95;;;1.85;;
31676;SDS011;18385;51.572;6.578;2023-11-19T04:10:44;19.27;;;2.45;;
31676;SDS011;18385;51.572;6.578;2023-11-19T04:13:10;9.60;;;1.40;;
31676;SDS011;18385;51.572;6.578;2023-11-19T04:15:36;15.15;;;1.70;;
31676;SDS011;18385;51.572;6.578;2023-11-19T04:18:01;13.32;;;2.05;;
31676;SDS011;18385;51.572;6.578;2023-11-19T04:20:27;11.93;;;1.90;;
31676;SDS011;18385;51.572;6.578;2023-11-19T04:22:55;14.10;;;2.65;;
31676;SDS011;18385;51.572;6.578;2023-11-19T04:25:21;7.80;;;1.42;;
31676;SDS011;18385;51.572;6.578;2023-11-19T04:27:49;8.90;;;2.35;;
31676;SDS011;18385;51.572;6.578;2023-11-19T04:30:15;12.05;;;1.80;;
31676;SDS011;18385;51.572;6.578;2023-11-19T04:32:42;12.32;;;1.80;;
31676;SDS011;18385;51.572;6.578;2023-11-19T04:35:07;16.35;;;2.05;;
31676;SDS011;18385;51.572;6.578;2023-11-19T04:37:34;18.80;;;2.80;;
31676;SDS011;18385;51.572;6.578;2023-11-19T04:39:59;12.57;;;1.90;;
31676;SDS011;18385;51.572;6.578;2023-11-19T04:42:25;20.23;;;4.20;;
31676;SDS011;18385;51.572;6.578;2023-11-19T04:44:51;27.10;;;2.45;;
31676;SDS011;18385;51.572;6.578;2023-11-19T04:47:16;15.75;;;3.13;;
31676;SDS011;18385;51.572;6.578;2023-11-19T04:49:42;17.75;;;2.47;;
31676;SDS011;18385;51.572;6.578;2023-11-19T04:52:08;20.90;;;3.25;;
31676;SDS011;18385;51.572;6.578;2023-11-19T04:54:34;21.48;;;2.72;;
31676;SDS011;18385;51.572;6.578;2023-11-19T04:56:59;14.80;;;2.25;;
31676;SDS011;18385;51.572;6.578;2023-11-19T04:59:25;24.38;;;3.08;;
31676;SDS011;18385;51.572;6.578;2023-11-19T05:01:52;21.58;;;3.33;;
31676;SDS011;18385;51.572;6.578;2023-11-19T05:04:18;16.65;;;3.55;;
31676;SDS011;18385;51.572;6.578;2023-11-19T05:06:44;16.63;;;2.78;;
31676;SDS011;18385;51.572;6.578;2023-11-19T05:09:09;22.40;;;2.90;;
31676;SDS011;18385;51.572;6.578;2023-11-19T05:11:38;13.85;;;2.15;;
31676;SDS011;18385;51.572;6.578;2023-11-19T05:14:04;9.98;;;1.70;;
31676;SDS011;18385;51.572;6.578;2023-11-19T05:16:30;16.23;;;1.70;;
31676;SDS011;18385;51.572;6.578;2023-11-19T05:18:56;14.82;;;2.90;;
31676;SDS011;18385;51.572;6.578;2023-11-19T05:21:22;17.38;;;2.17;;
31676;SDS011;18385;51.572;6.578;2023-11-19T05:23:48;9.65;;;2.08;;
31676;SDS011;18385;51.572;6.578;2023-11-19T05:26:18;26.17;;;3.53;;
31676;SDS011;18385;51.572;6.578;2023-11-19T05:28:45;17.33;;;3.25;;
31676;SDS011;18385;51.572;6.578;2023-11-19T05:31:10;20.20;;;4.22;;
31676;SDS011;18385;51.572;6.578;2023-11-19T05:33:36;19.42;;;2.60;;
31676;SDS011;18385;51.572;6.578;2023-11-19T05:36:02;17.05;;;2.00;;
31676;SDS011;18385;51.572;6.578;2023-11-19T05:38:29;17.90;;;3.75;;
31676;SDS011;18385;51.572;6.578;2023-11-19T05:40:54;10.00;;;2.25;;
31676;SDS011;18385;51.572;6.578;2023-11-19T05:43:20;18.20;;;2.25;;
31676;SDS011;18385;51.572;6.578;2023-11-19T05:45:46;14.00;;;2.13;;
31676;SDS011;18385;51.572;6.578;2023-11-19T05:48:12;23.23;;;3.17;;
31676;SDS011;18385;51.572;6.578;2023-11-19T05:50:38;23.80;;;2.50;;
31676;SDS011;18385;51.572;6.578;2023-11-19T05:53:04;18.52;;;2.28;;
31676;SDS011;18385;51.572;6.578;2023-11-19T05:55:35;16.83;;;2.00;;
31676;SDS011;18385;51.572;6.578;2023-11-19T05:58:10;15.00;;;3.13;;
31676;SDS011;18385;51.572;6.578;2023-11-19T06:00:37;14.63;;;1.88;;
31676;SDS011;18385;51.572;6.578;2023-11-19T06:03:06;11.52;;;1.42;;
31676;SDS011;18385;51.572;6.578;2023-11-19T06:05:32;20.08;;;2.58;;
31676;SDS011;18385;51.572;6.578;2023-11-19T06:07:58;18.77;;;2.67;;
31676;SDS011;18385;51.572;6.578;2023-11-19T06:10:24;22.92;;;2.85;;
31676;SDS011;18385;51.572;6.578;2023-11-19T06:12:57;18.45;;;2.40;;
31676;SDS011;18385;51.572;6.578;2023-11-19T06:15:26;18.98;;;2.80;;
31676;SDS011;18385;51.572;6.578;2023-11-19T06:17:52;16.17;;;2.20;;
31676;SDS011;18385;51.572;6.578;2023-11-19T06:20:18;26.58;;;3.72;;
31676;SDS011;18385;51.572;6.578;2023-11-19T06:22:45;16.45;;;2.22;;
31676;SDS011;18385;51.572;6.578;2023-11-19T06:25:11;21.67;;;3.10;;
31676;SDS011;18385;51.572;6.578;2023-11-19T06:27:40;23.13;;;3.07;;
31676;SDS011;18385;51.572;6.578;2023-11-19T06:30:06;28.50;;;4.05;;
31676;SDS011;18385;51.572;6.578;2023-11-19T06:32:32;21.90;;;3.38;;
31676;SDS011;18385;51.572;6.578;2023-11-19T06:34:58;17.50;;;2.35;;
31676;SDS011;18385;51.572;6.578;2023-11-19T06:37:23;18.83;;;3.05;;
31676;SDS011;18385;51.572;6.578;2023-11-19T06:39:50;15.23;;;2.83;;
31676;SDS011;18385;51.572;6.578;2023-11-19T06:42:16;16.20;;;1.88;;
31676;SDS011;18385;51.572;6.578;2023-11-19T06:44:42;21.10;;;2.40;;
31676;SDS011;18385;51.572;6.578;2023-11-19T06:47:08;19.65;;;2.45;;
31676;SDS011;18385;51.572;6.578;2023-11-19T06:49:33;13.75;;;1.63;;
31676;SDS011;18385;51.572;6.578;2023-11-19T06:51:59;11.38;;;1.48;;
31676;SDS011;18385;51.572;6.578;2023-11-19T06:54:24;17.70;;;2.95;;
31676;SDS011;18385;51.572;6.578;2023-11-19T06:56:50;14.95;;;2.97;;
31676;SDS011;18385;51.572;6.578;2023-11-19T06:59:16;25.63;;;3.75;;
31676;SDS011;18385;51.572;6.578;2023-11-19T07:01:42;13.63;;;2.08;;
31676;SDS011;18385;51.572;6.578;2023-11-19T07:04:10;25.65;;;2.80;;
31676;SDS011;18385;51.572;6.578;2023-11-19T07:06:37;19.13;;;2.55;;
31676;SDS011;18385;51.572;6.578;2023-11-19T07:09:06;14.37;;;2.20;;
31676;SDS011;18385;51.572;6.578;2023-11-19T07:11:38;18.02;;;2.35;;
31676;SDS011;18385;51.572;6.578;2023-11-19T07:14:05;14.88;;;2.63;;
31676;SDS011;18385;51.572;6.578;2023-11-19T07:16:32;17.13;;;2.53;;
31676;SDS011;18385;51.572;6.578;2023-11-19T07:18:59;13.52;;;2.35;;
31676;SDS011;18385;51.572;6.578;2023-11-19T07:21:26;18.95;;;3.00;;
31676;SDS011;18385;51.572;6.578;2023-11-19T07:23:53;15.98;;;3.10;;
31676;SDS011;18385;51.572;6.578;2023-11-19T07:26:22;17.50;;;3.38;;
31676;SDS011;18385;51.572;6.578;2023-11-19T07:28:49;24.17;;;3.20;;
31676;SDS011;18385;51.572;6.578;2023-11-19T07:31:15;15.00;;;2.47;;
31676;SDS011;18385;51.572;6.578;2023-11-19T07:33:41;20.77;;;2.67;;
31676;SDS011;18385;51.572;6.578;2023-11-19T07:36:09;15.05;;;2.40;;
31676;SDS011;18385;51.572;6.578;2023-11-19T07:38:36;13.55;;;3.42;;
31676;SDS011;18385;51.572;6.578;2023-11-19T07:41:02;35.63;;;3.58;;
31676;SDS011;18385;51.572;6.578;2023-11-19T07:43:28;21.60;;;3.05;;
31676;SDS011;18385;51.572;6.578;2023-11-19T07:45:53;23.08;;;2.78;;
31676;SDS011;18385;51.572;6.578;2023-11-19T07:48:19;15.88;;;3.17;;
31676;SDS011;18385;51.572;6.578;2023-11-19T07:50:51;15.50;;;1.95;;
31676;SDS011;18385;51.572;6.578;2023-11-19T07:53:18;19.98;;;3.13;;
31676;SDS011;18385;51.572;6.578;2023-11-19T07:55:44;25.67;;;2.35;;
31676;SDS011;18385;51.572;6.578;2023-11-19T07:58:10;23.23;;;3.20;;
31676;SDS011;18385;51.572;6.578;2023-11-19T08:00:36;19.92;;;2.75;;
31676;SDS011;18385;51.572;6.578;2023-11-19T08:03:05;16.65;;;2.97;;
31676;SDS011;18385;51.572;6.578;2023-11-19T08:05:31;22.57;;;1.73;;
31676;SDS011;18385;51.572;6.578;2023-11-19T08:07:57;13.70;;;2.15;;
31676;SDS011;18385;51.572;6.578;2023-11-19T08:10:23;18.52;;;3.45;;
31676;SDS011;18385;51.572;6.578;2023-11-19T08:12:49;18.60;;;2.22;;
31676;SDS011;18385;51.572;6.578;2023-11-19T08:15:14;18.92;;;2.45;;
31676;SDS011;18385;51.572;6.578;2023-11-19T08:17:41;17.70;;;3.40;;
31676;SDS011;18385;51.572;6.578;2023-11-19T08:20:08;18.02;;;2.67;;
31676;SDS011;18385;51.572;6.578;2023-11-19T08:22:38;15.93;;;3.47;;
31676;SDS011;18385;51.572;6.578;2023-11-19T08:25:04;26.35;;;3.58;;
31676;SDS011;18385;51.572;6.578;2023-11-19T08:27:30;18.80;;;2.90;;
31676;SDS011;18385;51.572;6.578;2023-11-19T08:29:56;26.95;;;2.28;;
31676;SDS011;18385;51.572;6.578;2023-11-19T08:32:25;20.23;;;2.85;;
31676;SDS011;18385;51.572;6.578;2023-11-19T08:37:17;18.80;;;2.92;;
31676;SDS011;18385;51.572;6.578;2023-11-19T08:39:48;15.52;;;2.92;;
31676;SDS011;18385;51.572;6.578;2023-11-19T08:42:15;19.35;;;3.45;;
31676;SDS011;18385;51.572;6.578;2023-11-19T08:44:42;25.60;;;3.50;;
31676;SDS011;18385;51.572;6.578;2023-11-19T08:47:12;22.30;;;2.65;;
31676;SDS011;18385;51.572;6.578;2023-11-19T08:49:38;21.83;;;3.05;;
31676;SDS011;18385;51.572;6.578;2023-11-19T08:52:04;26.08;;;2.92;;
31676;SDS011;18385;51.572;6.578;2023-11-19T08:54:32;18.85;;;3.55;;
31676;SDS011;18385;51.572;6.578;2023-11-19T08:56:58;26.35;;;4.07;;
31676;SDS011;18385;51.572;6.578;2023-11-19T08:59:24;19.85;;;2.60;;
31676;SDS011;18385;51.572;6.578;2023-11-19T09:01:50;32.95;;;3.20;;
31676;SDS011;18385;51.572;6.578;2023-11-19T09:04:16;25.63;;;3.65;;
31676;SDS011;18385;51.572;6.578;2023-11-19T09:06:41;21.30;;;3.00;;
31676;SDS011;18385;51.572;6.578;2023-11-19T09:09:08;17.27;;;2.25;;
31676;SDS011;18385;51.572;6.578;2023-11-19T09:11:34;18.52;;;1.90;;
31676;SDS011;18385;51.572;6.578;2023-11-19T09:14:00;24.73;;;3.72;;
31676;SDS011;18385;51.572;6.578;2023-11-19T09:16:25;15.48;;;2.70;;
31676;SDS011;18385;51.572;6.578;2023-11-19T09:18:51;24.55;;;4.18;;
31676;SDS011;18385;51.572;6.578;2023-11-19T09:21:17;20.23;;;2.50;;
31676;SDS011;18385;51.572;6.578;2023-11-19T09:23:42;16.67;;;3.90;;
31676;SDS011;18385;51.572;6.578;2023-11-19T09:26:09;21.52;;;2.83;;
31676;SDS011;18385;51.572;6.578;2023-11-19T09:28:37;17.25;;;2.95;;
31676;SDS011;18385;51.572;6.578;2023-11-19T09:31:12;18.33;;;2.50;;
31676;SDS011;18385;51.572;6.578;2023-11-19T09:33:38;15.43;;;3.08;;
31676;SDS011;18385;51.572;6.578;2023-11-19T09:36:04;15.75;;;2.58;;
31676;SDS011;18385;51.572;6.578;2023-11-19T09:38:30;20.42;;;2.58;;
31676;SDS011;18385;51.572;6.578;2023-11-19T09:40:55;26.98;;;3.28;;
31676;SDS011;18385;51.572;6.578;2023-11-19T09:43:23;20.15;;;2.67;;
31676;SDS011;18385;51.572;6.578;2023-11-19T09:45:49;17.38;;;2.22;;
31676;SDS011;18385;51.572;6.578;2023-11-19T09:48:16;15.90;;;2.13;;
31676;SDS011;18385;51.572;6.578;2023-11-19T09:50:44;17.80;;;3.05;;
31676;SDS011;18385;51.572;6.578;2023-11-19T09:53:12;17.60;;;2.45;;
31676;SDS011;18385;51.572;6.578;2023-11-19T09:55:38;16.65;;;2.38;;
31676;SDS011;18385;51.572;6.578;2023-11-19T09:58:04;16.17;;;2.45;;
31676;SDS011;18385;51.572;6.578;2023-11-19T10:00:32;23.40;;;2.72;;
31676;SDS011;18385;51.572;6.578;2023-11-19T10:02:58;18.27;;;2.67;;
31676;SDS011;18385;51.572;6.578;2023-11-19T10:05:25;24.42;;;5.05;;
31676;SDS011;18385;51.572;6.578;2023-11-19T10:07:51;17.08;;;3.53;;
31676;SDS011;18385;51.572;6.578;2023-11-19T10:10:17;14.32;;;2.80;;
31676;SDS011;18385;51.572;6.578;2023-11-19T10:12:47;13.85;;;2.65;;
31676;SDS011;18385;51.572;6.578;2023-11-19T10:15:22;12.70;;;2.45;;
31676;SDS011;18385;51.572;6.578;2023-11-19T10:17:50;20.42;;;2.72;;
31676;SDS011;18385;51.572;6.578;2023-11-19T10:20:16;19.67;;;3.30;;
31676;SDS011;18385;51.572;6.578;2023-11-19T10:22:42;21.92;;;3.28;;
31676;SDS011;18385;51.572;6.578;2023-11-19T10:25:24;18.33;;;2.83;;
31676;SDS011;18385;51.572;6.578;2023-11-19T10:27:51;15.00;;;2.47;;
31676;SDS011;18385;51.572;6.578;2023-11-19T10:30:20;21.77;;;3.55;;
31676;SDS011;18385;51.572;6.578;2023-11-19T10:35:55;24.52;;;2.65;;
31676;SDS011;18385;51.572;6.578;2023-11-19T10:38:22;14.80;;;2.65;;
31676;SDS011;18385;51.572;6.578;2023-11-19T10:40:49;15.52;;;2.17;;
31676;SDS011;18385;51.572;6.578;2023-11-19T10:43:16;23.30;;;2.85;;
31676;SDS011;18385;51.572;6.578;2023-11-19T10:45:47;20.90;;;2.25;;
31676;SDS011;18385;51.572;6.578;2023-11-19T10:48:13;17.60;;;2.15;;
31676;SDS011;18385;51.572;6.578;2023-11-19T10:50:39;16.20;;;2.65;;
31676;SDS011;18385;51.572;6.578;2023-11-19T10:53:07;16.95;;;2.55;;
31676;SDS011;18385;51.572;6.578;2023-11-19T10:55:35;18.02;;;3.90;;
31676;SDS011;18385;51.572;6.578;2023-11-19T10:58:07;13.10;;;2.63;;
31676;SDS011;18385;51.572;6.578;2023-11-19T11:03:20;13.50;;;2.42;;
31676;SDS011;18385;51.572;6.578;2023-11-19T11:05:48;18.52;;;2.88;;
31676;SDS011;18385;51.572;6.578;2023-11-19T11:08:14;24.40;;;3.13;;
31676;SDS011;18385;51.572;6.578;2023-11-19T11:10:44;10.55;;;1.70;;
31676;SDS011;18385;51.572;6.578;2023-11-19T11:13:22;20.00;;;3.33;;
31676;SDS011;18385;51.572;6.578;2023-11-19T11:15:55;19.98;;;2.53;;
31676;SDS011;18385;51.572;6.578;2023-11-19T11:18:22;23.70;;;3.15;;
31676;SDS011;18385;51.572;6.578;2023-11-19T11:20:50;17.70;;;2.55;;
31676;SDS011;18385;51.572;6.578;2023-11-19T11:29:02;16.27;;;3.22;;
31676;SDS011;18385;51.572;6.578;2023-11-19T11:39:57;15.02;;;2.60;;
31676;SDS011;18385;51.572;6.578;2023-11-19T11:45:07;18.92;;;3.35;;
31676;SDS011;18385;51.572;6.578;2023-11-19T11:55:28;19.23;;;3.35;;
31676;SDS011;18385;51.572;6.578;2023-11-19T11:57:57;16.13;;;2.67;;
31676;SDS011;18385;51.572;6.578;2023-11-19T12:02:55;17.88;;;2.28;;
31676;SDS011;18385;51.572;6.578;2023-11-19T12:05:22;13.30;;;2.35;;
31676;SDS011;18385;51.572;6.578;2023-11-19T12:07:54;12.95;;;2.17;;
31676;SDS011;18385;51.572;6.578;2023-11-19T12:10:23;20.65;;;2.50;;
31676;SDS011;18385;51.572;6.578;2023-11-19T12:12:52;18.08;;;2.22;;
31676;SDS011;18385;51.572;6.578;2023-11-19T12:15:18;16.15;;;2.17;;
31676;SDS011;18385;51.572;6.578;2023-11-19T12:17:49;11.10;;;1.92;;
31676;SDS011;18385;51.572;6.578;2023-11-19T12:20:16;10.38;;;1.80;;
31676;SDS011;18385;51.572;6.578;2023-11-19T12:22:46;15.85;;;2.53;;
31676;SDS011;18385;51.572;6.578;2023-11-19T12:25:14;21.07;;;2.50;;
31676;SDS011;18385;51.572;6.578;2023-11-19T12:27:50;16.35;;;2.42;;
31676;SDS011;18385;51.572;6.578;2023-11-19T12:33:30;11.68;;;1.92;;
31676;SDS011;18385;51.572;6.578;2023-11-19T12:35:58;12.07;;;2.63;;
31676;SDS011;18385;51.572;6.578;2023-11-19T12:38:31;20.92;;;3.72;;
31676;SDS011;18385;51.572;6.578;2023-11-19T12:41:07;17.40;;;2.05;;
31676;SDS011;18385;51.572;6.578;2023-11-19T12:43:45;12.63;;;2.33;;
31676;SDS011;18385;51.572;6.578;2023-11-19T12:46:24;11.15;;;1.98;;
31676;SDS011;18385;51.572;6.578;2023-11-19T12:54:53;17.02;;;2.58;;
31676;SDS011;18385;51.572;6.578;2023-11-19T12:57:35;9.90;;;1.38;;
31676;SDS011;18385;51.572;6.578;2023-11-19T13:00:01;9.07;;;1.98;;
31676;SDS011;18385;51.572;6.578;2023-11-19T13:05:37;11.30;;;2.90;;
31676;SDS011;18385;51.572;6.578;2023-11-19T13:08:06;5.28;;;1.05;;
31676;SDS011;18385;51.572;6.578;2023-11-19T13:13:14;16.38;;;1.95;;
31676;SDS011;18385;51.572;6.578;2023-11-19T13:15:40;18.85;;;2.58;;
31676;SDS011;18385;51.572;6.578;2023-11-19T13:18:06;12.63;;;1.65;;
31676;SDS011;18385;51.572;6.578;2023-11-19T13:20:32;13.07;;;1.20;;
31676;SDS011;18385;51.572;6.578;2023-11-19T13:22:59;17.15;;;2.72;;
31676;SDS011;18385;51.572;6.578;2023-11-19T13:25:26;15.18;;;2.50;;
31676;SDS011;18385;51.572;6.578;2023-11-19T13:27:52;11.18;;;1.83;;
31676;SDS011;18385;51.572;6.578;2023-11-19T13:30:18;16.55;;;3.65;;
31676;SDS011;18385;51.572;6.578;2023-11-19T13:32:44;13.38;;;2.60;;
31676;SDS011;18385;51.572;6.578;2023-11-19T13:35:14;16.13;;;2.42;;
31676;SDS011;18385;51.572;6.578;2023-11-19T13:37:40;11.75;;;1.48;;
31676;SDS011;18385;51.572;6.578;2023-11-19T13:40:06;11.55;;;2.20;;
31676;SDS011;18385;51.572;6.578;2023-11-19T13:42:35;13.97;;;1.57;;
31676;SDS011;18385;51.572;6.578;2023-11-19T13:45:01;11.57;;;1.73;;
31676;SDS011;18385;51.572;6.578;2023-11-19T13:47:28;15.40;;;2.67;;
31676;SDS011;18385;51.572;6.578;2023-11-19T13:49:54;13.40;;;2.03;;
31676;SDS011;18385;51.572;6.578;2023-11-19T13:52:19;13.88;;;2.92;;
31676;SDS011;18385;51.572;6.578;2023-11-19T13:54:45;9.65;;;1.58;;
31676;SDS011;18385;51.572;6.578;2023-11-19T13:57:10;10.60;;;1.75;;
31676;SDS011;18385;51.572;6.578;2023-11-19T13:59:39;15.70;;;2.13;;
31676;SDS011;18385;51.572;6.578;2023-11-19T14:02:06;16.10;;;1.80;;
31676;SDS011;18385;51.572;6.578;2023-11-19T14:04:32;8.70;;;2.03;;
31676;SDS011;18385;51.572;6.578;2023-11-19T14:06:58;13.73;;;2.40;;
31676;SDS011;18385;51.572;6.578;2023-11-19T14:09:24;16.88;;;2.95;;
31676;SDS011;18385;51.572;6.578;2023-11-19T14:11:49;16.23;;;1.90;;
31676;SDS011;18385;51.572;6.578;2023-11-19T14:14:16;11.38;;;1.67;;
31676;SDS011;18385;51.572;6.578;2023-11-19T14:16:42;17.85;;;3.15;;
31676;SDS011;18385;51.572;6.578;2023-11-19T14:19:07;13.18;;;1.92;;
31676;SDS011;18385;51.572;6.578;2023-11-19T14:21:33;17.33;;;6.00;;
31676;SDS011;18385;51.572;6.578;2023-11-19T14:23:59;14.75;;;2.40;;
31676;SDS011;18385;51.572;6.578;2023-11-19T14:26:24;12.00;;;2.88;;
31676;SDS011;18385;51.572;6.578;2023-11-19T14:28:50;14.77;;;2.67;;
31676;SDS011;18385;51.572;6.578;2023-11-19T14:31:16;11.65;;;2.67;;
31676;SDS011;18385;51.572;6.578;2023-11-19T14:33:41;19.95;;;2.53;;
31676;SDS011;18385;51.572;6.578;2023-11-19T14:36:07;8.80;;;1.80;;
31676;SDS011;18385;51.572;6.578;2023-11-19T14:38:33;13.55;;;2.58;;
31676;SDS011;18385;51.572;6.578;2023-11-19T14:40:58;15.38;;;3.45;;
31676;SDS011;18385;51.572;6.578;2023-11-19T14:43:24;16.27;;;2.50;;
31676;SDS011;18385;51.572;6.578;2023-11-19T14:45:51;9.48;;;2.00;;
31676;SDS011;18385;51.572;6.578;2023-11-19T14:48:17;16.05;;;4.10;;
31676;SDS011;18385;51.572;6.578;2023-11-19T14:50:43;19.30;;;2.83;;
31676;SDS011;18385;51.572;6.578;2023-11-19T14:53:10;10.50;;;2.00;;
31676;SDS011;18385;51.572;6.578;2023-11-19T14:55:35;16.08;;;2.03;;
31676;SDS011;18385;51.572;6.578;2023-11-19T14:58:01;14.88;;;1.65;;
31676;SDS011;18385;51.572;6.578;2023-11-19T15:00:27;10.50;;;1.95;;
31676;SDS011;18385;51.572;6.578;2023-11-19T15:02:53;14.65;;;1.90;;
31676;SDS011;18385;51.572;6.578;2023-11-19T15:05:19;10.73;;;2.17;;
31676;SDS011;18385;51.572;6.578;2023-11-19T15:07:45;14.13;;;1.77;;
31676;SDS011;18385;51.572;6.578;2023-11-19T15:10:11;10.35;;;1.75;;
31676;SDS011;18385;51.572;6.578;2023-11-19T15:12:37;9.15;;;1.95;;
31676;SDS011;18385;51.572;6.578;2023-11-19T15:15:08;14.68;;;2.13;;
31676;SDS011;18385;51.572;6.578;2023-11-19T15:17:35;13.50;;;2.47;;
31676;SDS011;18385;51.572;6.578;2023-11-19T15:20:02;13.82;;;2.05;;
31676;SDS011;18385;51.572;6.578;2023-11-19T15:22:28;13.45;;;2.15;;
31676;SDS011;18385;51.572;6.578;2023-11-19T15:24:54;9.65;;;2.08;;
31676;SDS011;18385;51.572;6.578;2023-11-19T15:27:19;11.48;;;2.17;;
31676;SDS011;18385;51.572;6.578;2023-11-19T15:29:45;21.98;;;3.83;;